Time;durP1;ratioP1;P1;durP2;ratioP2;P2;SDS_P1;SDS_P2;PMS_P1;PMS_P2;Temp;Humidity;BMP_temperature;BMP_pressure;BME280_temperature;BME280_humidity;BME280_pressure;Samples;Min_cycle;Max_cycle;Signal;HPM_P1;HPM_P2
2023/01/23 00:02:16;;;;;;;31.97;17.47;;;0.20;99.90;;;;;;5052560;28;20203;-77
2023/01/23 00:04:42;;;;;;;28.43;15.87;;;0.10;99.90;;;;;;5053124;28;20177;-77
2023/01/23 00:07:08;;;;;;;26.67;16.17;;;0.10;99.90;;;;;;5053072;28;20497;-77
2023/01/23 00:09:33;;;;;;;31.47;17.50;;;0.10;99.90;;;;;;5053342;28;20192;-77
2023/01/23 00:11:59;;;;;;;29.97;17.00;;;0.10;99.90;;;;;;5050734;28;20224;-76
2023/01/23 00:14:25;;;;;;;25.77;15.73;;;0.10;99.90;;;;;;5034577;28;20181;-78
2023/01/23 00:16:51;;;;;;;26.75;15.88;;;0.10;99.90;;;;;;5052842;28;20180;-76
2023/01/23 00:19:16;;;;;;;27.40;16.20;;;0.10;99.90;;;;;;5051712;28;20185;-78
2023/01/23 00:21:42;;;;;;;38.63;15.40;;;0.10;99.90;;;;;;5051525;28;20211;-77
2023/01/23 00:24:10;;;;;;;28.17;17.23;;;0.10;99.90;;;;;;5051709;28;20310;-76
2023/01/23 00:26:36;;;;;;;27.52;17.00;;;0.20;99.90;;;;;;5051829;28;20188;-77
2023/01/23 00:29:03;;;;;;;24.23;15.77;;;0.00;99.90;;;;;;5052933;28;20258;-77
2023/01/23 00:31:32;;;;;;;25.52;16.33;;;0.10;99.90;;;;;;5050996;28;20223;-77
2023/01/23 00:33:59;;;;;;;31.58;16.33;;;0.10;99.90;;;;;;5052801;28;20187;-77
2023/01/23 00:36:39;;;;;;;27.35;15.95;;;0.00;99.90;;;;;;5052739;28;20206;-78
2023/01/23 00:39:13;;;;;;;25.65;15.50;;;0.00;99.90;;;;;;5051967;28;20183;-78
2023/01/23 00:41:38;;;;;;;28.60;16.25;;;0.00;99.90;;;;;;5051692;28;20559;-77
2023/01/23 00:44:04;;;;;;;24.70;16.10;;;0.10;99.90;;;;;;5034620;28;20282;-77
2023/01/23 00:46:30;;;;;;;30.50;17.90;;;0.10;99.90;;;;;;5053176;28;20212;-77
2023/01/23 00:48:55;;;;;;;29.67;15.87;;;0.10;99.90;;;;;;5051899;28;20282;-78
2023/01/23 00:51:21;;;;;;;28.67;17.67;;;0.10;99.90;;;;;;5051592;28;20231;-77
2023/01/23 00:53:47;;;;;;;26.90;16.07;;;0.10;99.90;;;;;;5034725;28;20266;-77
2023/01/23 00:56:12;;;;;;;26.53;17.00;;;0.00;99.90;;;;;;5051672;28;20419;-78
2023/01/23 00:58:39;;;;;;;29.60;15.50;;;0.10;99.90;;;;;;5050656;28;20263;-78
2023/01/23 01:01:05;;;;;;;25.63;15.60;;;0.10;99.90;;;;;;5051448;28;20290;-78
2023/01/23 01:03:30;;;;;;;28.63;16.57;;;0.00;99.90;;;;;;5051440;28;20199;-78
2023/01/23 01:05:56;;;;;;;25.93;15.80;;;0.00;99.90;;;;;;5050137;28;20184;-77
2023/01/23 01:08:22;;;;;;;27.77;15.80;;;-0.20;99.90;;;;;;5033508;28;20245;-78
2023/01/23 01:10:47;;;;;;;27.20;15.97;;;0.00;99.90;;;;;;5049843;28;20447;-77
2023/01/23 01:13:13;;;;;;;27.30;15.70;;;-0.10;99.90;;;;;;5054824;28;20207;-80
2023/01/23 01:15:39;;;;;;;28.87;16.47;;;-0.10;99.90;;;;;;5057340;28;20183;-79
2023/01/23 01:18:04;;;;;;;25.23;15.27;;;-0.10;99.90;;;;;;5057277;28;20261;-79
2023/01/23 01:20:30;;;;;;;28.37;16.50;;;-0.10;99.90;;;;;;5056448;28;20222;-80
2023/01/23 01:22:57;;;;;;;30.53;17.97;;;-0.10;99.90;;;;;;5055251;28;20211;-79
2023/01/23 01:25:23;;;;;;;29.05;17.40;;;-0.10;99.90;;;;;;5055986;28;20192;-79
2023/01/23 01:27:49;;;;;;;30.83;19.37;;;-0.10;99.90;;;;;;5056615;28;20194;-80
2023/01/23 01:30:16;;;;;;;29.43;17.87;;;-0.20;99.90;;;;;;5055653;28;20418;-78
2023/01/23 01:32:42;;;;;;;29.70;17.50;;;-0.10;99.90;;;;;;5053813;28;20222;-78
2023/01/23 01:35:09;;;;;;;30.87;18.43;;;-0.10;99.90;;;;;;5037094;28;20180;-78
2023/01/23 01:37:38;;;;;;;31.08;17.85;;;-0.10;99.90;;;;;;5052436;28;20852;-77
2023/01/23 01:40:06;;;;;;;32.75;17.65;;;-0.10;99.90;;;;;;5032653;28;20180;-76
2023/01/23 01:43:05;;;;;;;30.38;17.13;;;-0.10;99.90;;;;;;5032668;28;21019;-77
2023/01/23 01:46:00;;;;;;;31.45;18.80;;;-0.20;99.90;;;;;;5050129;28;20538;-78
2023/01/23 01:48:32;;;;;;;31.20;18.73;;;-0.20;99.90;;;;;;5050815;28;20180;-77
2023/01/23 01:50:59;;;;;;;31.15;17.42;;;-0.10;99.90;;;;;;5050331;28;20261;-77
2023/01/23 01:53:27;;;;;;;30.40;17.70;;;-0.10;99.90;;;;;;5051550;28;20187;-79
2023/01/23 01:55:53;;;;;;;31.35;19.17;;;-0.10;99.90;;;;;;5051422;28;20210;-78
2023/01/23 01:58:20;;;;;;;34.80;17.90;;;-0.10;99.90;;;;;;5050358;28;20278;-77
2023/01/23 02:00:46;;;;;;;31.92;18.20;;;-0.10;99.90;;;;;;5034002;28;20473;-80
2023/01/23 02:03:12;;;;;;;33.20;18.90;;;-0.10;99.90;;;;;;5052369;28;20183;-77
2023/01/23 02:05:42;;;;;;;27.40;16.90;;;-0.10;99.90;;;;;;5053890;28;20766;-78
2023/01/23 02:08:15;;;;;;;29.52;17.13;;;-0.10;99.90;;;;;;5052275;28;20290;-77
2023/01/23 02:10:42;;;;;;;30.38;16.88;;;-0.10;99.90;;;;;;5054149;28;20601;-78
2023/01/23 02:13:31;;;;;;;31.38;17.33;;;-0.10;99.90;;;;;;5053076;28;20187;-78
2023/01/23 02:15:58;;;;;;;32.00;18.27;;;-0.10;99.90;;;;;;5053351;28;20217;-77
2023/01/23 02:18:26;;;;;;;27.75;17.55;;;0.00;99.90;;;;;;5053153;28;20202;-78
2023/01/23 02:20:55;;;;;;;34.80;19.17;;;-0.10;99.90;;;;;;5053282;28;20204;-77
2023/01/23 02:23:35;;;;;;;32.88;17.92;;;0.00;99.90;;;;;;5052693;28;20263;-79
2023/01/23 02:26:06;;;;;;;26.95;17.65;;;-0.10;99.90;;;;;;5052165;28;20233;-77
2023/01/23 02:28:37;;;;;;;30.75;16.33;;;0.00;99.90;;;;;;5051424;28;20660;-77
2023/01/23 02:31:03;;;;;;;27.15;16.48;;;0.00;99.90;;;;;;5049638;28;20226;-78
2023/01/23 02:33:29;;;;;;;30.05;16.08;;;0.00;99.90;;;;;;5050668;28;20229;-79
2023/01/23 02:35:54;;;;;;;26.23;16.53;;;0.00;99.90;;;;;;5049864;28;20191;-77
2023/01/23 02:38:25;;;;;;;27.60;17.77;;;0.00;99.90;;;;;;5048437;28;20249;-77
2023/01/23 02:40:54;;;;;;;30.85;18.85;;;-0.10;99.90;;;;;;5049367;28;20287;-78
2023/01/23 02:43:24;;;;;;;28.65;17.30;;;0.00;99.90;;;;;;5048348;28;20198;-77
2023/01/23 02:45:50;;;;;;;26.05;14.73;;;-0.10;99.90;;;;;;5049048;28;20188;-77
2023/01/23 02:48:16;;;;;;;30.17;17.00;;;-0.10;99.90;;;;;;5049234;28;20223;-78
2023/01/23 02:50:43;;;;;;;34.20;18.90;;;0.00;99.90;;;;;;5048514;28;20187;-80
2023/01/23 02:53:09;;;;;;;31.58;18.27;;;-0.10;99.90;;;;;;5048939;28;20185;-78
2023/01/23 02:55:38;;;;;;;30.60;17.13;;;-0.10;99.90;;;;;;5049520;28;20188;-79
2023/01/23 03:00:48;;;;;;;28.73;16.85;;;0.00;99.90;;;;;;5049351;28;20221;-77
2023/01/23 03:03:14;;;;;;;31.00;17.87;;;-0.10;99.90;;;;;;5032487;28;20278;-78
2023/01/23 03:05:40;;;;;;;26.13;16.88;;;-0.10;99.90;;;;;;5049347;28;20199;-77
2023/01/23 03:08:06;;;;;;;34.73;17.90;;;-0.10;99.90;;;;;;5049070;28;20184;-77
2023/01/23 03:10:31;;;;;;;31.30;17.47;;;0.00;99.90;;;;;;5047646;28;20539;-78
2023/01/23 03:13:00;;;;;;;31.60;18.50;;;-0.10;99.90;;;;;;5049259;28;20594;-78
2023/01/23 03:15:27;;;;;;;31.45;17.90;;;-0.10;99.90;;;;;;5049377;28;20179;-77
2023/01/23 03:17:53;;;;;;;27.88;16.33;;;0.00;99.90;;;;;;5049080;28;20180;-78
2023/01/23 03:20:22;;;;;;;34.17;17.85;;;-0.10;99.90;;;;;;5047881;28;20172;-77
2023/01/23 03:22:48;;;;;;;28.50;17.40;;;-0.10;99.90;;;;;;5047459;28;20222;-77
2023/01/23 03:25:14;;;;;;;30.67;16.53;;;-0.10;99.90;;;;;;5031085;28;20187;-77
2023/01/23 03:27:39;;;;;;;26.48;15.70;;;-0.10;99.90;;;;;;5048902;28;20195;-77
2023/01/23 03:30:12;;;;;;;30.27;17.50;;;-0.10;99.90;;;;;;5047492;28;20570;-77
2023/01/23 03:32:39;;;;;;;30.27;18.35;;;-0.10;99.90;;;;;;5047048;28;20227;-76
2023/01/23 03:35:06;;;;;;;26.88;16.77;;;-0.10;99.90;;;;;;5048240;28;20188;-77
2023/01/23 03:37:31;;;;;;;28.67;17.27;;;-0.10;99.90;;;;;;5046744;28;20193;-77
2023/01/23 03:42:42;;;;;;;27.60;16.48;;;-0.10;99.90;;;;;;5048875;28;20211;-77
2023/01/23 03:45:08;;;;;;;30.07;17.07;;;-0.10;99.90;;;;;;5048120;28;20193;-76
2023/01/23 03:47:34;;;;;;;28.50;17.88;;;-0.10;99.90;;;;;;5046908;28;20279;-79
2023/01/23 03:50:00;;;;;;;33.50;18.70;;;-0.10;99.90;;;;;;5046806;28;20191;-76
2023/01/23 03:52:25;;;;;;;27.07;15.93;;;-0.10;99.90;;;;;;5048256;28;20218;-77
2023/01/23 03:54:51;;;;;;;29.93;17.10;;;-0.10;99.90;;;;;;5046812;28;20812;-78
2023/01/23 03:57:17;;;;;;;25.23;16.33;;;-0.20;99.90;;;;;;5046917;28;20192;-78
2023/01/23 03:59:42;;;;;;;32.10;17.20;;;-0.20;99.90;;;;;;5030171;28;20452;-77
2023/01/23 04:02:08;;;;;;;33.17;16.73;;;-0.10;99.90;;;;;;5050524;28;20263;-78
2023/01/23 04:04:34;;;;;;;26.30;17.13;;;-0.10;99.90;;;;;;5050571;28;20765;-76
2023/01/23 04:07:00;;;;;;;28.63;16.57;;;-0.10;99.90;;;;;;5052106;28;20278;-79
2023/01/23 04:09:26;;;;;;;29.53;16.43;;;-0.10;99.90;;;;;;5050046;28;20433;-77
2023/01/23 04:11:53;;;;;;;29.90;16.02;;;-0.20;99.90;;;;;;5050048;28;20592;-77
2023/01/23 04:14:20;;;;;;;28.30;17.83;;;-0.20;99.90;;;;;;5051687;28;20210;-78
2023/01/23 04:16:46;;;;;;;31.33;18.25;;;-0.20;99.90;;;;;;5052092;28;20233;-77
2023/01/23 04:19:12;;;;;;;28.17;17.27;;;-0.20;99.90;;;;;;5050708;28;20181;-77
2023/01/23 04:21:38;;;;;;;26.42;16.35;;;-0.10;99.90;;;;;;5049900;28;20219;-77
2023/01/23 04:24:03;;;;;;;27.33;16.30;;;-0.10;99.90;;;;;;5050231;28;20193;-77
2023/01/23 04:26:29;;;;;;;29.57;15.70;;;-0.10;99.90;;;;;;5051006;28;20183;-77
2023/01/23 04:28:55;;;;;;;28.07;17.00;;;-0.10;99.90;;;;;;5052374;28;20341;-78
2023/01/23 04:31:20;;;;;;;28.93;17.00;;;-0.10;99.90;;;;;;5052044;28;20723;-77
2023/01/23 04:33:46;;;;;;;26.73;16.93;;;-0.10;99.90;;;;;;5034186;28;20241;-77
2023/01/23 04:36:12;;;;;;;29.50;17.40;;;-0.10;99.90;;;;;;5050728;28;20283;-77
2023/01/23 04:38:38;;;;;;;29.80;17.10;;;-0.10;99.90;;;;;;5052649;28;20643;-79
2023/01/23 04:41:04;;;;;;;30.58;18.50;;;-0.10;99.90;;;;;;5050628;28;20855;-77
2023/01/23 04:43:29;;;;;;;31.00;17.50;;;-0.10;99.90;;;;;;5034299;28;20254;-78
2023/01/23 04:45:57;;;;;;;25.37;15.83;;;-0.10;99.90;;;;;;5052083;28;20187;-78
2023/01/23 04:48:23;;;;;;;29.75;17.52;;;-0.10;99.90;;;;;;5051831;28;20450;-77
2023/01/23 04:50:49;;;;;;;31.05;18.00;;;-0.10;99.90;;;;;;5033776;28;20211;-77
2023/01/23 04:53:15;;;;;;;32.88;18.27;;;-0.10;99.90;;;;;;5051816;28;20606;-78
2023/01/23 04:55:40;;;;;;;30.87;18.40;;;-0.10;99.90;;;;;;5051870;28;20286;-78
2023/01/23 04:58:06;;;;;;;27.87;17.33;;;-0.10;99.90;;;;;;5051190;28;20183;-78
2023/01/23 05:00:32;;;;;;;29.70;18.33;;;-0.10;99.90;;;;;;5035014;28;20205;-78
2023/01/23 05:02:57;;;;;;;29.00;18.37;;;-0.10;99.90;;;;;;5052971;28;20184;-77
2023/01/23 05:05:23;;;;;;;33.83;20.20;;;-0.10;99.90;;;;;;5050359;28;20427;-77
2023/01/23 05:07:50;;;;;;;28.70;17.33;;;-0.10;99.90;;;;;;5051627;28;20194;-78
2023/01/23 05:10:16;;;;;;;26.60;17.02;;;-0.10;99.90;;;;;;5052214;28;20421;-78
2023/01/23 05:12:42;;;;;;;29.27;17.67;;;-0.20;99.90;;;;;;5051291;28;20735;-78
2023/01/23 05:15:09;;;;;;;29.60;16.73;;;-0.20;99.90;;;;;;5052568;28;20199;-77
2023/01/23 05:17:35;;;;;;;31.13;18.42;;;-0.20;99.90;;;;;;5050849;28;20972;-77
2023/01/23 05:20:01;;;;;;;29.60;18.13;;;-0.10;99.90;;;;;;5051599;28;20180;-77
2023/01/23 05:22:26;;;;;;;31.90;17.73;;;-0.20;99.90;;;;;;5033445;28;20481;-77
2023/01/23 05:24:52;;;;;;;29.17;17.80;;;-0.20;99.90;;;;;;5050513;28;20199;-77
2023/01/23 05:27:17;;;;;;;26.70;16.67;;;-0.20;99.90;;;;;;5049722;28;20755;-79
2023/01/23 05:29:43;;;;;;;32.60;17.47;;;-0.10;99.90;;;;;;5034461;28;20195;-77
2023/01/23 05:32:09;;;;;;;28.20;17.43;;;-0.10;99.90;;;;;;5049562;28;20248;-79
2023/01/23 05:34:35;;;;;;;28.43;17.03;;;-0.10;99.90;;;;;;5051326;28;20183;-80
2023/01/23 05:37:01;;;;;;;27.85;16.75;;;-0.10;99.90;;;;;;5033961;28;20199;-80
2023/01/23 05:39:26;;;;;;;31.67;17.90;;;-0.10;99.90;;;;;;5050533;28;20191;-77
2023/01/23 05:41:52;;;;;;;30.33;16.30;;;-0.10;99.90;;;;;;5033891;28;20203;-78
2023/01/23 05:44:17;;;;;;;32.70;17.73;;;0.00;99.90;;;;;;5051363;28;20187;-79
2023/01/23 05:46:43;;;;;;;28.93;16.70;;;-0.10;99.90;;;;;;5051068;28;20190;-79
2023/01/23 05:49:09;;;;;;;25.87;16.20;;;-0.10;99.90;;;;;;5052412;28;20195;-77
2023/01/23 05:51:34;;;;;;;27.40;15.20;;;-0.10;99.90;;;;;;5050940;28;20213;-77
2023/01/23 05:54:01;;;;;;;27.07;15.60;;;-0.10;99.90;;;;;;5050376;28;20178;-76
2023/01/23 05:56:26;;;;;;;28.25;16.13;;;0.00;99.90;;;;;;5032642;28;20180;-77
2023/01/23 05:58:52;;;;;;;29.80;16.70;;;-0.10;99.90;;;;;;5049110;28;20241;-76
2023/01/23 06:01:18;;;;;;;34.70;16.30;;;0.00;99.90;;;;;;5050171;28;20943;-77
2023/01/23 06:03:44;;;;;;;33.07;18.13;;;-0.10;99.90;;;;;;5048653;28;20438;-76
2023/01/23 06:06:10;;;;;;;33.03;17.45;;;-0.10;99.90;;;;;;5048927;28;20418;-76
2023/01/23 06:08:36;;;;;;;28.40;15.60;;;-0.10;99.90;;;;;;5050177;28;20302;-76
2023/01/23 06:11:02;;;;;;;29.00;16.70;;;-0.10;99.90;;;;;;5048642;28;20552;-75
2023/01/23 06:13:28;;;;;;;28.83;15.98;;;-0.10;99.90;;;;;;5050109;28;20614;-76
2023/01/23 06:15:54;;;;;;;33.15;16.58;;;-0.10;99.90;;;;;;5049601;28;20183;-75
2023/01/23 06:18:20;;;;;;;37.30;18.93;;;-0.10;99.90;;;;;;5030340;28;20199;-76
2023/01/23 06:20:46;;;;;;;31.60;17.90;;;-0.10;99.90;;;;;;5048262;28;20455;-76
2023/01/23 06:23:12;;;;;;;28.30;17.00;;;-0.10;99.90;;;;;;5048331;28;20418;-75
2023/01/23 06:25:38;;;;;;;30.40;17.17;;;-0.10;99.90;;;;;;5045964;28;20195;-76
2023/01/23 06:28:04;;;;;;;35.95;17.50;;;-0.10;99.90;;;;;;5047721;28;20178;-76
2023/01/23 06:30:30;;;;;;;30.23;17.40;;;-0.10;99.90;;;;;;5047496;28;20536;-76
2023/01/23 06:32:56;;;;;;;26.33;15.87;;;-0.10;99.90;;;;;;5047766;28;20581;-76
2023/01/23 06:35:21;;;;;;;30.67;17.67;;;-0.10;99.90;;;;;;5046102;28;20182;-75
2023/01/23 06:37:47;;;;;;;31.47;17.90;;;-0.20;99.90;;;;;;5048096;28;20429;-77
2023/01/23 06:40:13;;;;;;;31.80;18.07;;;-0.20;99.90;;;;;;5046413;28;20712;-76
2023/01/23 06:42:42;;;;;;;33.53;17.27;;;-0.20;99.90;;;;;;5046146;28;20747;-76
2023/01/23 06:45:09;;;;;;;30.65;17.55;;;-0.20;99.90;;;;;;5047881;28;20411;-76
2023/01/23 06:47:35;;;;;;;28.40;16.30;;;-0.20;99.90;;;;;;5047798;28;20192;-77
2023/01/23 06:50:01;;;;;;;33.23;18.70;;;-0.10;99.90;;;;;;5047530;28;20569;-77
2023/01/23 06:52:27;;;;;;;32.55;18.30;;;-0.10;99.90;;;;;;5045586;28;20658;-77
2023/01/23 06:54:53;;;;;;;31.92;17.98;;;-0.20;99.90;;;;;;5047400;28;20180;-77
2023/01/23 06:57:18;;;;;;;29.90;17.13;;;-0.10;99.90;;;;;;5045761;28;20598;-75
2023/01/23 06:59:44;;;;;;;24.10;14.87;;;-0.10;99.90;;;;;;5045859;28;20199;-76
2023/01/23 07:02:10;;;;;;;28.50;17.40;;;-0.10;99.90;;;;;;5047355;28;20221;-75
2023/01/23 07:04:36;;;;;;;34.17;18.33;;;0.00;99.90;;;;;;5047433;28;20212;-76
2023/01/23 07:07:01;;;;;;;37.80;19.50;;;0.00;99.90;;;;;;5046217;28;20688;-77
2023/01/23 07:09:27;;;;;;;36.77;19.13;;;0.00;99.90;;;;;;5046285;28;20240;-76
2023/01/23 07:11:53;;;;;;;33.13;18.43;;;0.10;99.90;;;;;;5045608;28;20219;-76
2023/01/23 07:14:18;;;;;;;30.67;17.27;;;0.00;99.90;;;;;;5029086;28;20180;-76
2023/01/23 07:16:44;;;;;;;24.33;13.47;;;-0.10;99.90;;;;;;5045976;28;20186;-76
2023/01/23 07:19:10;;;;;;;27.73;16.10;;;-0.10;99.90;;;;;;5047327;28;20184;-79
2023/01/23 07:21:35;;;;;;;24.07;14.20;;;-0.10;99.90;;;;;;5045912;28;20204;-76
2023/01/23 07:24:01;;;;;;;25.70;15.03;;;-0.10;99.90;;;;;;5045815;28;20297;-76
2023/01/23 07:26:26;;;;;;;26.23;15.00;;;0.00;99.90;;;;;;5047288;28;20187;-76
2023/01/23 07:28:52;;;;;;;26.23;15.40;;;0.00;99.90;;;;;;5047811;28;20196;-76
2023/01/23 07:31:18;;;;;;;25.87;14.33;;;0.00;99.90;;;;;;5046749;28;20333;-77
2023/01/23 07:33:44;;;;;;;28.63;15.43;;;0.00;99.90;;;;;;5047335;28;20241;-77
2023/01/23 07:36:12;;;;;;;29.47;16.40;;;-0.10;99.90;;;;;;5046842;28;20418;-76
2023/01/23 07:38:38;;;;;;;27.48;14.82;;;0.00;99.90;;;;;;5050329;28;20188;-76
2023/01/23 07:41:04;;;;;;;30.70;16.80;;;0.00;99.90;;;;;;5051612;28;20587;-77
2023/01/23 07:43:29;;;;;;;26.40;15.13;;;0.00;99.90;;;;;;5033203;28;20187;-77
2023/01/23 07:46:00;;;;;;;27.70;13.97;;;0.00;99.90;;;;;;5051066;28;20229;-76
2023/01/23 07:48:28;;;;;;;24.75;14.52;;;0.00;99.90;;;;;;5049545;28;20274;-76
2023/01/23 07:50:54;;;;;;;23.73;13.63;;;0.00;99.90;;;;;;5050938;28;20219;-76
2023/01/23 07:53:19;;;;;;;23.87;14.33;;;0.00;99.90;;;;;;5051015;28;20652;-76
2023/01/23 07:55:45;;;;;;;22.83;14.27;;;0.00;99.90;;;;;;5049360;28;20180;-77
2023/01/23 07:58:10;;;;;;;22.53;13.90;;;0.10;99.90;;;;;;5049549;28;20183;-77
2023/01/23 08:00:37;;;;;;;20.27;12.47;;;0.10;99.90;;;;;;5050984;28;20574;-77
2023/01/23 08:03:03;;;;;;;24.08;13.25;;;0.10;99.90;;;;;;5050936;28;20188;-77
2023/01/23 08:05:28;;;;;;;21.17;12.60;;;0.10;99.90;;;;;;5051572;28;20196;-77
2023/01/23 08:07:54;;;;;;;20.43;11.77;;;0.20;99.90;;;;;;5051764;28;20187;-77
2023/01/23 08:10:20;;;;;;;23.07;13.60;;;0.20;99.90;;;;;;5052201;28;20307;-77
2023/01/23 08:12:45;;;;;;;19.73;12.60;;;0.10;99.90;;;;;;5051274;28;20215;-76
2023/01/23 08:15:11;;;;;;;20.00;11.83;;;0.10;99.90;;;;;;5051554;28;20245;-77
2023/01/23 08:17:37;;;;;;;22.37;13.00;;;0.20;99.90;;;;;;5051404;28;20172;-77
2023/01/23 08:20:03;;;;;;;25.40;13.53;;;0.20;99.90;;;;;;5051356;28;20176;-76
2023/01/23 08:22:28;;;;;;;20.83;12.60;;;0.20;99.90;;;;;;5050068;28;20204;-77
2023/01/23 08:24:54;;;;;;;19.20;12.03;;;0.20;99.90;;;;;;5049748;28;20813;-77
2023/01/23 08:27:20;;;;;;;21.73;12.17;;;0.20;99.90;;;;;;5049839;28;20608;-76
2023/01/23 08:29:45;;;;;;;21.50;12.50;;;0.20;99.90;;;;;;5033109;28;20191;-77
2023/01/23 08:32:11;;;;;;;19.60;12.23;;;0.30;99.90;;;;;;5051013;28;20215;-77
2023/01/23 08:34:36;;;;;;;22.13;12.10;;;0.30;99.90;;;;;;5050938;28;20179;-77
2023/01/23 08:37:02;;;;;;;16.40;10.93;;;0.30;99.90;;;;;;5048795;28;20180;-76
2023/01/23 08:39:28;;;;;;;19.97;12.00;;;0.30;99.90;;;;;;5050117;28;20183;-77
2023/01/23 08:41:53;;;;;;;23.13;12.77;;;0.30;99.90;;;;;;5049879;28;20204;-76
2023/01/23 08:44:19;;;;;;;21.07;12.97;;;0.30;99.90;;;;;;5048261;28;20199;-76
2023/01/23 08:46:45;;;;;;;19.43;10.50;;;0.30;99.90;;;;;;5049916;28;20184;-76
2023/01/23 08:49:11;;;;;;;19.40;11.35;;;0.30;99.90;;;;;;5047637;28;20579;-76
2023/01/23 08:51:37;;;;;;;21.77;10.97;;;0.30;99.90;;;;;;5048510;28;20221;-76
2023/01/23 08:54:03;;;;;;;18.07;11.83;;;0.30;99.90;;;;;;5050323;28;20529;-76
2023/01/23 08:56:28;;;;;;;18.93;12.20;;;0.30;99.90;;;;;;5048771;28;20435;-76
2023/01/23 08:58:54;;;;;;;19.17;12.00;;;0.40;99.90;;;;;;5032057;28;20190;-75
2023/01/23 09:01:23;;;;;;;20.30;11.73;;;0.50;99.90;;;;;;5050458;28;20480;-77
2023/01/23 09:03:49;;;;;;;18.25;11.38;;;0.60;99.90;;;;;;5049403;28;20667;-77
2023/01/23 09:06:17;;;;;;;19.05;11.00;;;0.70;99.90;;;;;;5050454;28;20541;-76
2023/01/23 09:08:42;;;;;;;24.02;12.95;;;0.80;99.90;;;;;;5050108;28;20195;-75
2023/01/23 09:11:10;;;;;;;22.87;13.53;;;0.80;99.90;;;;;;5050335;28;20215;-78
2023/01/23 09:13:36;;;;;;;22.80;12.25;;;0.90;99.90;;;;;;5050140;28;20191;-76
2023/01/23 09:16:03;;;;;;;21.87;12.50;;;0.90;99.90;;;;;;5048844;28;20188;-77
2023/01/23 09:18:29;;;;;;;20.42;12.98;;;0.80;99.90;;;;;;5049025;28;20426;-76
2023/01/23 09:20:55;;;;;;;19.30;11.97;;;0.90;99.90;;;;;;5050445;28;20200;-77
2023/01/23 09:23:21;;;;;;;18.03;12.27;;;0.90;99.90;;;;;;5050589;28;20176;-77
2023/01/23 09:25:47;;;;;;;19.65;11.45;;;0.90;99.90;;;;;;5049662;28;20464;-76
2023/01/23 09:28:13;;;;;;;17.90;11.70;;;0.90;99.90;;;;;;5049815;28;20235;-76
2023/01/23 09:30:39;;;;;;;14.83;10.70;;;0.90;99.90;;;;;;5049689;28;20511;-76
2023/01/23 09:33:04;;;;;;;20.83;12.57;;;0.90;99.90;;;;;;5048037;28;20674;-77
2023/01/23 09:35:31;;;;;;;18.07;11.50;;;1.00;99.90;;;;;;5049431;28;20185;-76
2023/01/23 09:37:59;;;;;;;18.80;11.65;;;1.00;99.90;;;;;;5049523;28;20181;-77
2023/01/23 09:40:47;;;;;;;18.25;11.02;;;1.00;99.90;;;;;;5049099;28;20176;-78
2023/01/23 09:43:43;;;;;;;19.17;11.75;;;1.00;99.90;;;;;;5049187;28;20177;-76
2023/01/23 09:46:09;;;;;;;20.45;10.88;;;1.00;99.90;;;;;;5049084;28;20490;-77
2023/01/23 09:48:46;;;;;;;18.60;11.68;;;1.10;99.90;;;;;;5049038;28;20261;-78
2023/01/23 09:51:36;;;;;;;19.05;12.18;;;1.20;99.90;;;;;;5047334;28;20226;-76
2023/01/23 09:54:26;;;;;;;19.55;12.18;;;1.30;99.90;;;;;;5049077;28;20182;-76
2023/01/23 09:56:54;;;;;;;19.65;11.02;;;1.40;99.90;;;;;;5047384;28;20628;-77
2023/01/23 09:59:36;;;;;;;16.90;10.48;;;1.40;99.90;;;;;;5048732;28;20538;-76
2023/01/23 10:02:02;;;;;;;17.77;10.95;;;1.40;99.90;;;;;;5048457;28;20288;-76
2023/01/23 10:04:30;;;;;;;16.70;10.15;;;1.40;99.90;;;;;;5047754;28;20195;-76
2023/01/23 10:06:58;;;;;;;17.40;9.95;;;1.40;99.90;;;;;;5047533;28;20592;-75
2023/01/23 10:09:56;;;;;;;19.08;12.00;;;1.40;99.90;;;;;;5048884;28;20191;-76
2023/01/23 10:12:42;;;;;;;21.23;12.13;;;1.40;99.90;;;;;;5049157;28;20295;-75
2023/01/23 10:15:15;;;;;;;19.60;11.35;;;1.40;99.90;;;;;;5048944;28;20180;-76
2023/01/23 10:18:04;;;;;;;19.90;12.63;;;1.40;99.90;;;;;;5047310;28;20192;-77
2023/01/23 10:20:48;;;;;;;22.08;12.52;;;1.30;99.90;;;;;;5048294;28;20175;-76
2023/01/23 10:23:23;;;;;;;23.08;12.45;;;1.40;99.90;;;;;;5048931;28;20183;-75
2023/01/23 10:25:49;;;;;;;23.92;14.45;;;1.30;99.90;;;;;;5048958;28;20176;-77
2023/01/23 10:28:37;;;;;;;24.95;14.07;;;1.30;99.90;;;;;;5048522;28;20185;-77
2023/01/23 10:31:09;;;;;;;24.58;13.57;;;1.30;99.90;;;;;;5048564;28;20227;-76
2023/01/23 10:33:55;;;;;;;23.60;14.45;;;1.30;99.90;;;;;;5051145;28;20184;-76
2023/01/23 10:36:35;;;;;;;21.75;11.43;;;1.30;99.90;;;;;;5046771;28;20248;-76
2023/01/23 10:39:21;;;;;;;24.17;13.63;;;1.20;99.90;;;;;;5049622;28;20214;-76
2023/01/23 10:41:46;;;;;;;23.13;13.38;;;1.20;99.90;;;;;;5046515;28;20219;-76
2023/01/23 10:44:18;;;;;;;18.30;12.03;;;1.30;99.90;;;;;;5048385;28;20950;-76
2023/01/23 10:46:55;;;;;;;24.33;13.30;;;1.30;99.90;;;;;;5046322;28;20217;-77
2023/01/23 10:49:44;;;;;;;24.58;14.02;;;1.30;99.90;;;;;;5047836;28;20271;-76
2023/01/23 10:52:34;;;;;;;20.88;12.18;;;1.30;99.90;;;;;;5048005;28;20257;-77
2023/01/23 10:55:00;;;;;;;22.92;13.27;;;1.30;99.90;;;;;;5046850;28;20298;-76
2023/01/23 10:57:29;;;;;;;17.85;10.80;;;1.40;99.90;;;;;;5046735;28;20255;-77
2023/01/23 11:00:07;;;;;;;20.67;12.05;;;1.30;99.90;;;;;;5046793;28;20208;-75
2023/01/23 11:02:35;;;;;;;18.10;10.95;;;1.40;99.90;;;;;;5048712;28;20325;-77
2023/01/23 11:05:21;;;;;;;19.60;12.55;;;1.40;99.90;;;;;;5047372;28;20191;-75
2023/01/23 11:07:52;;;;;;;20.77;12.82;;;1.40;99.90;;;;;;5048050;28;20188;-76
2023/01/23 11:10:21;;;;;;;18.95;11.05;;;1.40;99.90;;;;;;5046617;28;20234;-77
2023/01/23 11:12:53;;;;;;;25.33;12.90;;;1.50;99.90;;;;;;5051279;28;20215;-76
2023/01/23 11:15:27;;;;;;;18.15;10.82;;;1.40;99.90;;;;;;5052348;28;20186;-76
2023/01/23 11:17:56;;;;;;;24.00;12.65;;;1.40;99.90;;;;;;5051975;28;20185;-76
2023/01/23 11:20:38;;;;;;;20.25;12.25;;;1.30;99.90;;;;;;5052660;28;20190;-75
2023/01/23 11:23:16;;;;;;;19.02;11.73;;;1.40;99.90;;;;;;5052571;28;20183;-76
2023/01/23 11:25:50;;;;;;;16.58;10.52;;;1.40;99.90;;;;;;5051623;28;20238;-75
2023/01/23 11:28:22;;;;;;;18.00;11.32;;;1.40;99.90;;;;;;5050311;28;20275;-75
2023/01/23 11:31:09;;;;;;;19.67;11.80;;;1.40;99.90;;;;;;5051698;28;20208;-77
2023/01/23 11:33:53;;;;;;;19.35;12.65;;;1.50;99.90;;;;;;5051509;28;20184;-76
2023/01/23 11:36:29;;;;;;;16.80;10.65;;;1.50;99.90;;;;;;5051928;28;20596;-78
2023/01/23 11:39:00;;;;;;;19.15;11.80;;;1.50;99.90;;;;;;5052287;28;20169;-77
2023/01/23 11:41:32;;;;;;;17.95;10.75;;;1.50;99.90;;;;;;5051258;28;20235;-78
2023/01/23 11:43:59;;;;;;;20.50;11.65;;;1.50;99.90;;;;;;5063135;28;20255;-77
2023/01/23 11:46:51;;;;;;;21.85;12.65;;;1.50;99.90;;;;;;5062917;28;20199;-77
2023/01/23 11:49:44;;;;;;;22.05;12.73;;;1.60;99.90;;;;;;5051358;28;20557;-77
2023/01/23 11:52:16;;;;;;;19.90;12.30;;;1.60;99.90;;;;;;5052650;28;20275;-77
2023/01/23 11:54:49;;;;;;;22.25;12.13;;;1.60;99.90;;;;;;5053248;28;20266;-78
2023/01/23 11:57:27;;;;;;;20.30;11.70;;;1.60;99.90;;;;;;5052928;28;20180;-77
2023/01/23 12:00:20;;;;;;;20.13;12.35;;;1.70;99.90;;;;;;5053306;28;20184;-78
2023/01/23 12:03:25;;;;;;;21.20;12.73;;;1.70;99.90;;;;;;5052751;28;20293;-78
2023/01/23 12:06:13;;;;;;;24.80;12.77;;;1.80;99.90;;;;;;5049623;28;20188;-76
2023/01/23 12:09:06;;;;;;;21.90;13.40;;;1.80;99.90;;;;;;5051121;28;20629;-76
2023/01/23 12:11:57;;;;;;;25.10;13.40;;;1.80;99.90;;;;;;5050044;28;20226;-76
2023/01/23 12:14:25;;;;;;;21.52;12.52;;;1.90;99.90;;;;;;5022647;28;20192;-76
2023/01/23 12:17:11;;;;;;;25.58;13.07;;;1.90;99.90;;;;;;5050506;28;20177;-76
2023/01/23 12:19:47;;;;;;;22.55;12.95;;;2.00;99.90;;;;;;5050929;28;20169;-76
2023/01/23 12:22:27;;;;;;;22.95;13.15;;;2.00;99.90;;;;;;5050062;28;20222;-75
2023/01/23 12:25:24;;;;;;;30.83;13.63;;;2.20;99.90;;;;;;5050146;28;20180;-76
2023/01/23 12:28:00;;;;;;;24.85;13.60;;;2.10;99.90;;;;;;5041996;28;20292;-76
2023/01/23 12:30:47;;;;;;;27.90;15.18;;;2.10;99.90;;;;;;5050629;28;20168;-77
2023/01/23 12:33:21;;;;;;;24.58;13.82;;;2.10;99.90;;;;;;5050027;28;20637;-76
2023/01/23 12:35:58;;;;;;;24.83;13.85;;;2.00;99.90;;;;;;5050943;28;20555;-77
2023/01/23 12:38:33;;;;;;;22.33;12.32;;;2.00;99.90;;;;;;5050708;28;20179;-77
2023/01/23 12:41:22;;;;;;;22.08;13.05;;;2.00;99.90;;;;;;5050369;28;20204;-76
2023/01/23 12:44:20;;;;;;;22.88;12.90;;;1.90;99.90;;;;;;5050625;28;20177;-77
2023/01/23 12:46:52;;;;;;;24.38;13.48;;;2.00;99.90;;;;;;4964178;28;20186;-76
2023/01/23 12:49:38;;;;;;;22.58;13.68;;;1.90;99.90;;;;;;5048754;28;20191;-76
2023/01/23 12:52:24;;;;;;;31.27;15.45;;;2.00;99.90;;;;;;5048864;28;20301;-76